createdAt,value
2022-08-21T00:00:32.655Z,100807.25
2022-08-21T00:03:04.273Z,100806.72
2022-08-21T00:05:32.616Z,100806.31
2022-08-21T00:08:02.680Z,100803.91
2022-08-21T00:10:29.209Z,100800.44
2022-08-21T00:12:56.398Z,100793.13
2022-08-21T00:15:32.050Z,100798.50
2022-08-21T00:17:59.184Z,100790.41
2022-08-21T00:20:25.818Z,100787.81
2022-08-21T00:22:52.588Z,100791.53
2022-08-21T00:25:20.980Z,100788.44
2022-08-21T00:27:52.762Z,100792.97
2022-08-21T00:30:23.370Z,100789.50
2022-08-21T00:32:52.019Z,100784.09
2022-08-21T00:35:20.972Z,100788.22
2022-08-21T00:37:47.729Z,100789.38
2022-08-21T00:40:21.936Z,100782.66
2022-08-21T00:42:53.431Z,100779.19
2022-08-21T00:45:22.084Z,100786.91
2022-08-21T00:47:49.079Z,100792.59
2022-08-21T00:50:21.565Z,100786.53
2022-08-21T00:52:48.939Z,100784.50
2022-08-21T00:55:17.598Z,100787.81
2022-08-21T00:57:50.520Z,100782.19
2022-08-21T01:00:22.429Z,100783.03
2022-08-21T01:02:49.042Z,100779.63
2022-08-21T01:05:17.384Z,100786.19
2022-08-21T01:07:45.778Z,100778.88
2022-08-21T01:10:24.128Z,100775.09
2022-08-21T01:12:53.706Z,100781.16
2022-08-21T01:15:22.658Z,100786.50
2022-08-21T01:17:50.260Z,100778.00
2022-08-21T01:20:17.491Z,100783.00
2022-08-21T01:22:44.149Z,100778.31
2022-08-21T01:25:14.540Z,100788.28
2022-08-21T01:27:41.075Z,100774.91
2022-08-21T01:30:24.232Z,100779.34
2022-08-21T01:32:52.169Z,100786.19
2022-08-21T01:35:19.694Z,100780.13
2022-08-21T01:37:46.958Z,100791.75
2022-08-21T01:40:16.579Z,100781.41
2022-08-21T01:42:44.591Z,100782.81
2022-08-21T01:45:12.081Z,100783.25
2022-08-21T01:47:38.837Z,100772.41
2022-08-21T01:50:08.816Z,100774.94
2022-08-21T01:52:35.400Z,100775.28
2022-08-21T01:55:02.178Z,100771.59
2022-08-21T01:57:28.987Z,100772.00
2022-08-21T01:59:55.577Z,100764.75
2022-08-21T02:02:24.923Z,100773.97
2022-08-21T02:04:54.550Z,100767.34
2022-08-21T02:07:22.160Z,100774.22
2022-08-21T02:09:48.653Z,100780.91
2022-08-21T02:12:15.140Z,100782.00
2022-08-21T02:14:41.641Z,100792.38
2022-08-21T02:17:10.978Z,100780.50
2022-08-21T02:19:40.698Z,100779.91
2022-08-21T02:22:10.372Z,100774.78
2022-08-21T02:24:38.534Z,100781.84
2022-08-21T02:27:26.767Z,100772.91
2022-08-21T02:29:58.787Z,100774.91
2022-08-21T02:32:26.784Z,100770.06
2022-08-21T02:34:53.685Z,100773.50
2022-08-21T02:37:20.177Z,100769.78
2022-08-21T02:39:46.787Z,100766.84
2022-08-21T02:42:13.362Z,100768.53
2022-08-21T02:44:39.838Z,100766.97
2022-08-21T02:47:06.396Z,100771.25
2022-08-21T02:49:32.889Z,100764.56
2022-08-21T02:51:59.416Z,100769.53
2022-08-21T02:54:26.167Z,100770.66
2022-08-21T02:56:52.794Z,100771.72
2022-08-21T02:59:19.274Z,100776.91
2022-08-21T03:01:45.766Z,100771.28
2022-08-21T03:04:12.295Z,100775.38
2022-08-21T03:06:38.786Z,100770.28
2022-08-21T03:09:05.447Z,100775.81
2022-08-21T03:11:31.990Z,100767.16
2022-08-21T03:13:58.509Z,100769.28
2022-08-21T03:16:25.049Z,100766.16
2022-08-21T03:18:51.497Z,100768.41
2022-08-21T03:21:19.851Z,100775.50
2022-08-21T03:23:47.515Z,100770.69
2022-08-21T03:26:14.730Z,100763.06
2022-08-21T03:28:42.747Z,100767.16
2022-08-21T03:31:09.631Z,100767.72
2022-08-21T03:33:36.322Z,100768.31
2022-08-21T03:36:06.772Z,100765.88
2022-08-21T03:38:35.244Z,100768.56
2022-08-21T03:41:02.457Z,100772.13
2022-08-21T03:43:31.267Z,100768.88
2022-08-21T03:46:01.103Z,100769.47
2022-08-21T03:48:27.652Z,100769.72
2022-08-21T03:50:54.202Z,100769.03
2022-08-21T03:53:20.897Z,100764.50
2022-08-21T03:55:50.326Z,100772.97
2022-08-21T03:58:19.714Z,100771.84
2022-08-21T04:00:47.837Z,100771.00
2022-08-21T04:03:14.346Z,100771.84
2022-08-21T04:05:41.833Z,100776.81
2022-08-21T04:08:08.763Z,100770.59
2022-08-21T04:10:38.000Z,100774.97
2022-08-21T04:13:05.952Z,100780.50
2022-08-21T04:15:32.566Z,100776.66
2022-08-21T04:17:59.935Z,100784.88
2022-08-21T04:20:26.698Z,100785.41
2022-08-21T04:22:53.778Z,100784.72
2022-08-21T04:25:22.473Z,100786.84
2022-08-21T04:27:49.485Z,100784.59
2022-08-21T04:30:17.555Z,100787.81
2022-08-21T04:32:49.962Z,100784.00
2022-08-21T04:35:18.380Z,100792.78
2022-08-21T04:37:45.012Z,100792.78
2022-08-21T04:40:14.238Z,100801.53
2022-08-21T04:42:53.195Z,100792.06
2022-08-21T04:45:26.596Z,100787.97
2022-08-21T04:47:54.966Z,100796.59
2022-08-21T04:50:24.815Z,100792.63
2022-08-21T04:52:51.503Z,100797.13
2022-08-21T04:55:19.756Z,100807.03
2022-08-21T04:57:48.671Z,100805.63
2022-08-21T05:00:19.465Z,100806.34
2022-08-21T05:02:48.600Z,100801.22
2022-08-21T05:05:16.629Z,100799.69
2022-08-21T05:07:45.499Z,100802.09
2022-08-21T05:10:13.858Z,100799.84
2022-08-21T05:12:42.875Z,100795.19
2022-08-21T05:15:12.910Z,100805.56
2022-08-21T05:17:43.130Z,100796.84
2022-08-21T05:20:11.385Z,100804.41
2022-08-21T05:22:37.946Z,100805.81
2022-08-21T05:25:10.331Z,100812.41
2022-08-21T05:27:39.218Z,100807.19
2022-08-21T05:30:09.776Z,100811.31
2022-08-21T05:32:37.405Z,100807.78
2022-08-21T05:35:06.040Z,100808.91
2022-08-21T05:37:32.754Z,100806.38
2022-08-21T05:40:20.073Z,100814.03
2022-08-21T05:42:53.998Z,100817.41
2022-08-21T05:45:43.356Z,100810.91
2022-08-21T05:48:20.148Z,100811.75
2022-08-21T05:50:50.980Z,100821.50
2022-08-21T05:53:20.558Z,100819.81
2022-08-21T05:55:49.050Z,100816.31
2022-08-21T05:58:17.968Z,100821.69
2022-08-21T06:00:48.218Z,100812.19
2022-08-21T06:03:20.474Z,100813.13
2022-08-21T06:05:47.657Z,100812.41
2022-08-21T06:08:18.205Z,100810.97
2022-08-21T06:10:45.540Z,100805.25
2022-08-21T06:13:12.879Z,100808.47
2022-08-21T06:15:39.605Z,100810.00
2022-08-21T06:18:06.466Z,100806.28
2022-08-21T06:20:33.424Z,100801.25
2022-08-21T06:23:00.026Z,100808.03
2022-08-21T06:25:26.907Z,100804.81
2022-08-21T06:27:53.460Z,100808.13
2022-08-21T06:30:20.090Z,100804.97
2022-08-21T06:32:46.534Z,100808.47
2022-08-21T06:35:12.999Z,100795.44
2022-08-21T06:37:39.463Z,100797.03
2022-08-21T06:40:12.564Z,100800.81
2022-08-21T06:42:39.823Z,100796.34
2022-08-21T06:45:08.310Z,100793.66
2022-08-21T06:47:34.884Z,100791.56
2022-08-21T06:50:01.548Z,100780.75
2022-08-21T06:52:28.075Z,100784.22
2022-08-21T06:54:54.521Z,100785.88
2022-08-21T06:57:20.987Z,100787.41
2022-08-21T06:59:47.448Z,100789.38
2022-08-21T07:02:14.106Z,100791.31
2022-08-21T07:04:40.610Z,100791.41
2022-08-21T07:07:07.071Z,100791.44
2022-08-21T07:09:33.978Z,100783.13
2022-08-21T07:12:01.015Z,100791.75
2022-08-21T07:14:27.493Z,100784.16
2022-08-21T07:16:53.983Z,100777.69
2022-08-21T07:19:20.502Z,100780.56
2022-08-21T07:21:47.575Z,100767.53
2022-08-21T07:24:14.173Z,100771.03
2022-08-21T07:26:41.109Z,100765.69
2022-08-21T07:29:07.563Z,100762.81
2022-08-21T07:31:34.022Z,100763.88
2022-08-21T07:34:00.511Z,100764.72
2022-08-21T07:36:26.980Z,100767.59
2022-08-21T07:38:53.816Z,100761.19
2022-08-21T07:41:23.510Z,100764.91
2022-08-21T07:43:52.673Z,100759.84
2022-08-21T07:46:20.418Z,100756.78
2022-08-21T07:48:46.928Z,100751.97
2022-08-21T07:51:15.916Z,100750.81
2022-08-21T07:53:42.683Z,100744.44
2022-08-21T07:56:09.495Z,100749.06
2022-08-21T07:58:36.148Z,100741.78
2022-08-21T08:01:02.702Z,100737.66
2022-08-21T08:03:29.436Z,100745.34
2022-08-21T08:05:57.521Z,100737.94
2022-08-21T08:08:24.610Z,100730.25
2022-08-21T08:10:51.443Z,100736.47
2022-08-21T08:13:18.279Z,100732.63
2022-08-21T08:15:44.820Z,100732.78
2022-08-21T08:18:11.370Z,100726.34
2022-08-21T08:20:37.965Z,100732.91
2022-08-21T08:23:04.464Z,100738.41
2022-08-21T08:25:36.623Z,100728.56
2022-08-21T08:28:06.834Z,100731.53
2022-08-21T08:30:45.090Z,100726.88
2022-08-21T08:33:11.565Z,100725.09
2022-08-21T08:35:39.144Z,100728.38
2022-08-21T08:38:06.422Z,100725.75
2022-08-21T08:40:45.797Z,100718.69
2022-08-21T08:43:15.516Z,100717.97
2022-08-21T08:45:47.641Z,100723.72
2022-08-21T08:48:18.182Z,100728.75
2022-08-21T08:50:50.160Z,100720.81
2022-08-21T08:53:25.242Z,100724.41
2022-08-21T08:55:53.446Z,100720.19
2022-08-21T08:58:25.515Z,100728.41
2022-08-21T09:00:54.833Z,100727.41
2022-08-21T09:03:23.907Z,100719.72
2022-08-21T09:06:19.002Z,100713.94
2022-08-21T09:08:59.705Z,100715.91
2022-08-21T09:11:32.315Z,100718.19
2022-08-21T09:14:04.762Z,100713.84
2022-08-21T09:17:13.386Z,100717.09
2022-08-21T09:19:58.316Z,100709.69
2022-08-21T09:22:43.650Z,100717.34
2022-08-21T09:25:19.310Z,100711.25
2022-08-21T09:27:45.823Z,100710.47
2022-08-21T09:30:13.391Z,100712.94
2022-08-21T09:32:40.711Z,100707.81
2022-08-21T09:35:14.240Z,100715.06
2022-08-21T09:37:46.611Z,100701.72
2022-08-21T09:40:28.672Z,100702.44
2022-08-21T09:43:20.249Z,100699.13
2022-08-21T09:45:48.695Z,100703.38
2022-08-21T09:48:15.080Z,100712.56
2022-08-21T09:50:43.690Z,100696.56
2022-08-21T09:53:26.912Z,100707.19
2022-08-21T09:56:19.087Z,100702.88
2022-08-21T09:58:51.655Z,100710.25
2022-08-21T10:01:23.398Z,100702.06
2022-08-21T10:04:02.495Z,100704.19
2022-08-21T10:06:29.580Z,100706.13
2022-08-21T10:09:21.098Z,100697.66
2022-08-21T10:12:11.851Z,100704.38
2022-08-21T10:14:46.399Z,100704.41
2022-08-21T10:17:23.423Z,100698.53
2022-08-21T10:20:29.404Z,100695.94
2022-08-21T10:23:14.133Z,100690.16
2022-08-21T10:26:14.046Z,100693.19
2022-08-21T10:28:48.569Z,100690.34
2022-08-21T10:31:45.962Z,100692.25
2022-08-21T10:34:26.238Z,100678.28
2022-08-21T10:37:13.846Z,100680.66
2022-08-21T10:40:00.810Z,100680.91
2022-08-21T10:43:07.815Z,100675.75
2022-08-21T10:45:52.952Z,100674.78
2022-08-21T10:48:47.597Z,100679.19
2022-08-21T10:51:29.240Z,100675.09
2022-08-21T10:54:23.199Z,100676.97
2022-08-21T10:56:56.852Z,100676.00
2022-08-21T10:59:35.436Z,100672.66
2022-08-21T11:02:21.538Z,100665.06
2022-08-21T11:04:58.305Z,100667.72
2022-08-21T11:07:49.946Z,100668.75
2022-08-21T11:10:25.695Z,100657.38
2022-08-21T11:13:08.069Z,100665.03
2022-08-21T11:15:59.992Z,100666.84
2022-08-21T11:18:35.796Z,100657.81
2022-08-21T11:21:04.829Z,100664.06
2022-08-21T11:23:55.417Z,100650.34
2022-08-21T11:26:37.826Z,100652.75
2022-08-21T11:29:28.806Z,100651.88
2022-08-21T11:32:32.536Z,100653.63
2022-08-21T11:35:17.868Z,100652.59
2022-08-21T11:37:52.274Z,100653.81
2022-08-21T11:40:27.686Z,100653.03
2022-08-21T11:43:00.396Z,100644.66
2022-08-21T11:45:54.503Z,100663.56
2022-08-21T11:48:55.025Z,100649.50
2022-08-21T11:51:34.483Z,100645.47
2022-08-21T11:54:20.096Z,100642.47
2022-08-21T11:56:56.722Z,100641.25
2022-08-21T11:59:46.749Z,100644.81
2022-08-21T12:02:22.064Z,100643.47
2022-08-21T12:04:54.374Z,100642.06
2022-08-21T12:07:34.826Z,100639.88
2022-08-21T12:10:05.137Z,100635.75
2022-08-21T12:12:38.094Z,100638.81
2022-08-21T12:15:16.907Z,100636.25
2022-08-21T12:17:56.266Z,100630.50
2022-08-21T12:20:22.682Z,100636.31
2022-08-21T12:23:12.675Z,100635.94
2022-08-21T12:26:01.643Z,100635.09
2022-08-21T12:28:30.055Z,100631.94
2022-08-21T12:30:58.249Z,100629.09
2022-08-21T12:33:24.738Z,100626.00
2022-08-21T12:35:55.880Z,100627.13
2022-08-21T12:38:28.657Z,100629.88
2022-08-21T12:41:11.313Z,100629.63
2022-08-21T12:43:48.453Z,100618.53
2022-08-21T12:46:27.457Z,100623.13
2022-08-21T12:49:02.568Z,100613.03
2022-08-21T12:51:57.462Z,100620.97
2022-08-21T12:54:27.847Z,100611.31
2022-08-21T12:57:06.981Z,100609.97
2022-08-21T12:59:38.638Z,100610.00
2022-08-21T13:02:17.799Z,100619.03
2022-08-21T13:04:45.323Z,100613.13
2022-08-21T13:07:19.020Z,100615.31
2022-08-21T13:09:51.823Z,100603.53
2022-08-21T13:12:21.300Z,100597.94
2022-08-21T13:14:50.491Z,100607.13
2022-08-21T13:17:25.502Z,100605.25
2022-08-21T13:20:02.149Z,100605.25
2022-08-21T13:22:34.267Z,100597.81
2022-08-21T13:25:07.049Z,100594.34
2022-08-21T13:27:35.020Z,100599.19
2022-08-21T13:30:23.388Z,100595.81
2022-08-21T13:32:58.410Z,100588.59
2022-08-21T13:35:29.331Z,100597.97
2022-08-21T13:37:57.021Z,100594.56
2022-08-21T13:40:31.508Z,100595.22
2022-08-21T13:42:58.926Z,100585.34
2022-08-21T13:45:33.310Z,100591.00
2022-08-21T13:48:06.157Z,100594.25
2022-08-21T13:50:37.389Z,100592.25
2022-08-21T13:53:07.853Z,100593.66
2022-08-21T13:55:43.794Z,100598.13
2022-08-21T13:58:12.483Z,100599.00
2022-08-21T14:00:51.461Z,100600.72
2022-08-21T14:03:33.589Z,100592.38
2022-08-21T14:06:00.654Z,100593.13
2022-08-21T14:08:36.929Z,100591.84
2022-08-21T14:11:05.833Z,100588.41
2022-08-21T14:13:41.495Z,100591.63
2022-08-21T14:16:18.983Z,100595.53
2022-08-21T14:18:52.897Z,100585.53
2022-08-21T14:21:33.367Z,100587.84
2022-08-21T14:24:03.576Z,100589.09
2022-08-21T14:26:30.140Z,100588.09
2022-08-21T14:29:00.895Z,100578.19
2022-08-21T14:31:33.646Z,100586.59
2022-08-21T14:34:00.358Z,100575.00
2022-08-21T14:36:26.848Z,100584.06
2022-08-21T14:38:53.364Z,100585.25
2022-08-21T14:41:24.857Z,100580.91
2022-08-21T14:43:55.978Z,100581.34
2022-08-21T14:46:55.654Z,100587.63
2022-08-21T14:49:27.033Z,100580.88
2022-08-21T14:51:58.495Z,100569.94
2022-08-21T14:54:32.422Z,100577.44
2022-08-21T14:57:06.402Z,100567.69
2022-08-21T14:59:34.179Z,100561.78
2022-08-21T15:02:01.075Z,100571.47
2022-08-21T15:04:27.645Z,100575.84
2022-08-21T15:06:54.146Z,100575.03
2022-08-21T15:09:20.707Z,100574.84
2022-08-21T15:11:47.289Z,100575.44
2022-08-21T15:14:22.494Z,100572.91
2022-08-21T15:16:50.126Z,100576.91
2022-08-21T15:19:17.161Z,100581.31
2022-08-21T15:21:43.678Z,100580.72
2022-08-21T15:24:10.254Z,100575.25
2022-08-21T15:26:37.186Z,100579.22
2022-08-21T15:29:06.755Z,100577.56
2022-08-21T15:31:34.695Z,100573.78
2022-08-21T15:34:01.183Z,100580.91
2022-08-21T15:36:27.725Z,100562.00
2022-08-21T15:38:54.264Z,100571.81
2022-08-21T15:41:20.846Z,100566.84
2022-08-21T15:43:50.318Z,100574.63
2022-08-21T15:46:19.437Z,100577.13
2022-08-21T15:48:47.135Z,100574.63
2022-08-21T15:51:15.218Z,100574.19
2022-08-21T15:53:42.910Z,100567.28
2022-08-21T15:56:23.720Z,100575.25
2022-08-21T15:58:54.311Z,100579.84
2022-08-21T16:01:22.502Z,100575.63
2022-08-21T16:03:50.962Z,100577.94
2022-08-21T16:06:17.607Z,100584.69
2022-08-21T16:09:04.436Z,100583.03
2022-08-21T16:11:31.087Z,100578.81
2022-08-21T16:13:57.658Z,100583.59
2022-08-21T16:16:25.268Z,100578.81
2022-08-21T16:18:52.653Z,100584.81
2022-08-21T16:21:19.635Z,100574.34
2022-08-21T16:23:46.180Z,100577.59
2022-08-21T16:26:18.361Z,100581.75
2022-08-21T16:28:46.399Z,100573.78
2022-08-21T16:31:15.320Z,100574.63
2022-08-21T16:33:44.868Z,100574.19
2022-08-21T16:36:12.742Z,100579.56
2022-08-21T16:38:40.323Z,100577.97
2022-08-21T16:41:09.739Z,100577.53
2022-08-21T16:43:36.565Z,100575.38
2022-08-21T16:46:03.077Z,100576.84
2022-08-21T16:48:29.818Z,100575.25
2022-08-21T16:50:57.907Z,100576.69
2022-08-21T16:53:25.926Z,100569.81
2022-08-21T16:55:53.449Z,100570.16
2022-08-21T16:58:26.049Z,100573.38
2022-08-21T17:00:53.186Z,100568.66
2022-08-21T17:03:25.906Z,100563.88
2022-08-21T17:05:52.397Z,100567.91
2022-08-21T17:08:18.880Z,100567.88
2022-08-21T17:10:49.084Z,100570.38
2022-08-21T17:13:16.155Z,100563.41
2022-08-21T17:15:42.906Z,100564.19
2022-08-21T17:18:19.305Z,100575.41
2022-08-21T17:20:47.606Z,100571.22
2022-08-21T17:23:15.100Z,100573.56
2022-08-21T17:25:45.210Z,100574.72
2022-08-21T17:28:23.411Z,100576.16
2022-08-21T17:30:50.740Z,100578.94
2022-08-21T17:33:19.297Z,100571.59
2022-08-21T17:35:46.424Z,100570.53
2022-08-21T17:38:14.955Z,100568.03
2022-08-21T17:40:42.220Z,100569.88
2022-08-21T17:43:11.653Z,100575.63
2022-08-21T17:45:40.536Z,100576.72
2022-08-21T17:48:07.102Z,100580.44
2022-08-21T17:50:34.161Z,100579.81
2022-08-21T17:53:00.818Z,100586.84
2022-08-21T17:55:28.567Z,100584.72
2022-08-21T17:57:55.939Z,100584.00
2022-08-21T18:00:25.509Z,100583.19
2022-08-21T18:03:04.613Z,100579.00
2022-08-21T18:05:31.447Z,100572.53
2022-08-21T18:07:57.904Z,100585.41
2022-08-21T18:10:25.138Z,100592.06
2022-08-21T18:12:52.146Z,100583.47
2022-08-21T18:15:20.221Z,100578.91
2022-08-21T18:17:49.812Z,100586.28
2022-08-21T18:20:20.121Z,100586.81
2022-08-21T18:22:47.041Z,100597.81
2022-08-21T18:25:13.847Z,100592.75
2022-08-21T18:27:42.613Z,100605.06
2022-08-21T18:30:10.642Z,100610.09
2022-08-21T18:32:37.332Z,100604.81
2022-08-21T18:35:05.550Z,100606.75
2022-08-21T18:37:32.131Z,100608.78
2022-08-21T18:39:59.303Z,100614.09
2022-08-21T18:42:28.664Z,100612.19
2022-08-21T18:45:00.850Z,100616.44
2022-08-21T18:47:37.265Z,100618.09
2022-08-21T18:50:10.745Z,100623.78
2022-08-21T18:52:38.519Z,100628.22
2022-08-21T18:55:13.533Z,100630.00
2022-08-21T18:57:42.155Z,100632.53
2022-08-21T19:00:20.688Z,100636.63
2022-08-21T19:02:47.391Z,100634.22
2022-08-21T19:05:15.924Z,100638.00
2022-08-21T19:07:44.032Z,100641.47
2022-08-21T19:10:29.350Z,100643.63
2022-08-21T19:13:00.258Z,100649.31
2022-08-21T19:15:27.523Z,100647.06
2022-08-21T19:17:55.784Z,100648.09
2022-08-21T19:20:34.342Z,100651.81
2022-08-21T19:23:02.375Z,100655.03
2022-08-21T19:28:25.255Z,100654.94
2022-08-21T19:30:58.755Z,100657.75
2022-08-21T19:33:35.898Z,100656.41
2022-08-21T19:36:03.947Z,100662.47
2022-08-21T19:38:30.502Z,100660.25
2022-08-21T19:40:59.039Z,100667.75
2022-08-21T19:43:26.188Z,100662.84
2022-08-21T19:45:56.979Z,100656.84
2022-08-21T19:48:24.918Z,100657.41
2022-08-21T19:50:52.592Z,100664.72
2022-08-21T19:53:19.799Z,100667.25
2022-08-21T19:55:48.234Z,100663.88
2022-08-21T19:58:23.892Z,100654.41
2022-08-21T20:00:50.421Z,100674.00
2022-08-21T20:03:17.742Z,100676.50
2022-08-21T20:05:47.768Z,100671.13
2022-08-21T20:08:20.612Z,100662.91
2022-08-21T20:10:49.774Z,100667.91
2022-08-21T20:13:17.858Z,100671.13
2022-08-21T20:15:45.506Z,100672.72
2022-08-21T20:18:12.151Z,100676.28
2022-08-21T20:20:38.693Z,100674.59
2022-08-21T20:25:51.739Z,100676.38
2022-08-21T20:28:18.403Z,100684.38
2022-08-21T20:30:48.401Z,100685.84
2022-08-21T20:33:15.752Z,100679.78
2022-08-21T20:35:45.234Z,100677.91
2022-08-21T20:38:11.771Z,100681.94
2022-08-21T20:40:40.491Z,100679.44
2022-08-21T20:43:08.332Z,100677.63
2022-08-21T20:45:40.456Z,100673.41
2022-08-21T20:48:31.837Z,100677.13
2022-08-21T20:51:31.682Z,100677.81
2022-08-21T20:54:16.974Z,100673.97
2022-08-21T20:57:13.886Z,100673.78
2022-08-21T20:59:50.318Z,100678.44
2022-08-21T21:02:20.701Z,100694.09
2022-08-21T21:04:52.406Z,100684.44
2022-08-21T21:07:27.380Z,100684.66
2022-08-21T21:09:56.772Z,100688.75
2022-08-21T21:12:31.445Z,100689.16
2022-08-21T21:15:05.571Z,100683.84
2022-08-21T21:17:43.162Z,100694.09
2022-08-21T21:20:54.025Z,100693.06
2022-08-21T21:23:36.523Z,100695.34
2022-08-21T21:29:23.625Z,100692.34
2022-08-21T21:31:53.767Z,100700.63
2022-08-21T21:34:22.388Z,100691.50
2022-08-21T21:36:56.636Z,100698.25
2022-08-21T21:39:36.107Z,100700.97
2022-08-21T21:42:18.084Z,100703.16
2022-08-21T21:45:21.560Z,100700.97
2022-08-21T21:51:16.349Z,100713.91
2022-08-21T21:54:04.036Z,100708.69
2022-08-21T21:56:52.527Z,100717.94
2022-08-21T21:59:51.226Z,100726.78
2022-08-21T22:02:42.194Z,100722.69
2022-08-21T22:05:43.383Z,100721.59
2022-08-21T22:08:12.778Z,100721.00
2022-08-21T22:11:00.155Z,100728.63
2022-08-21T22:13:53.323Z,100721.72
2022-08-21T22:16:22.257Z,100734.84
2022-08-21T22:18:56.303Z,100726.28
2022-08-21T22:21:36.041Z,100728.63
2022-08-21T22:24:12.453Z,100733.47
2022-08-21T22:26:46.055Z,100735.00
2022-08-21T22:29:18.896Z,100738.06
2022-08-21T22:32:02.379Z,100736.94
2022-08-21T22:34:31.974Z,100740.59
2022-08-21T22:37:02.754Z,100735.38
2022-08-21T22:39:38.577Z,100738.06
2022-08-21T22:42:21.458Z,100736.34
2022-08-21T22:44:58.620Z,100737.69
2022-08-21T22:47:39.203Z,100735.00
2022-08-21T22:50:18.527Z,100734.16
2022-08-21T22:53:06.839Z,100734.44
2022-08-21T22:55:39.163Z,100725.78
2022-08-21T22:58:21.018Z,100739.91
2022-08-21T23:01:02.152Z,100732.44
2022-08-21T23:03:50.739Z,100743.13
2022-08-21T23:06:32.577Z,100742.66
2022-08-21T23:09:00.904Z,100736.03
2022-08-21T23:11:40.110Z,100732.72
2022-08-21T23:14:07.257Z,100733.28
2022-08-21T23:16:43.063Z,100755.28
2022-08-21T23:19:38.248Z,100733.84
2022-08-21T23:22:23.638Z,100734.03
2022-08-21T23:25:50.146Z,100731.84
2022-08-21T23:28:38.746Z,100730.16
2022-08-21T23:31:14.319Z,100730.16
2022-08-21T23:34:15.879Z,100727.31
2022-08-21T23:37:16.999Z,100725.31
2022-08-21T23:39:51.739Z,100728.47
2022-08-21T23:42:28.540Z,100732.19
2022-08-21T23:45:17.313Z,100734.47
2022-08-21T23:48:02.468Z,100734.09
2022-08-21T23:50:55.451Z,100725.84
2022-08-21T23:53:44.250Z,100725.94
2022-08-21T23:56:39.953Z,100732.06
2022-08-21T23:59:28.270Z,100728.84
